sensor_id;sensor_type;location;lat;lon;timestamp;pressure;altitude;pressure_sealevel;temperature;humidity
54588;BME280;40484;50.198;19.576;2023-03-04T00:03:09;101632.57;;;2.68;59.11
54588;BME280;40484;50.198;19.576;2023-03-04T00:08:11;101630.52;;;2.82;58.56
54588;BME280;40484;50.198;19.576;2023-03-04T00:13:40;101631.34;;;2.78;58.77
54588;BME280;40484;50.198;19.576;2023-03-04T00:18:42;101622.95;;;2.88;58.69
54588;BME280;40484;50.198;19.576;2023-03-04T00:23:43;101607.38;;;2.93;58.60
54588;BME280;40484;50.198;19.576;2023-03-04T00:28:45;101595.69;;;2.98;58.38
54588;BME280;40484;50.198;19.576;2023-03-04T00:33:46;101594.66;;;2.84;59.04
54588;BME280;40484;50.198;19.576;2023-03-04T00:38:48;101589.23;;;2.86;58.96
54588;BME280;40484;50.198;19.576;2023-03-04T00:43:49;101580.64;;;2.82;59.24
54588;BME280;40484;50.198;19.576;2023-03-04T00:48:51;101575.98;;;2.84;59.10
54588;BME280;40484;50.198;19.576;2023-03-04T00:53:52;101571.60;;;2.77;59.51
54588;BME280;40484;50.198;19.576;2023-03-04T00:58:54;101557.94;;;2.89;59.24
54588;BME280;40484;50.198;19.576;2023-03-04T01:03:55;101546.21;;;2.84;59.38
54588;BME280;40484;50.198;19.576;2023-03-04T01:08:57;101525.42;;;2.68;59.74
54588;BME280;40484;50.198;19.576;2023-03-04T01:13:59;101516.54;;;2.82;59.49
54588;BME280;40484;50.198;19.576;2023-03-04T01:19:00;101506.43;;;2.75;59.79
54588;BME280;40484;50.198;19.576;2023-03-04T01:24:02;101502.77;;;2.81;59.33
54588;BME280;40484;50.198;19.576;2023-03-04T01:29:03;101499.42;;;2.79;59.43
54588;BME280;40484;50.198;19.576;2023-03-04T01:34:05;101487.18;;;2.76;59.61
54588;BME280;40484;50.198;19.576;2023-03-04T01:39:07;101491.48;;;2.57;60.16
54588;BME280;40484;50.198;19.576;2023-03-04T01:44:10;101473.61;;;2.81;59.57
54588;BME280;40484;50.198;19.576;2023-03-04T01:49:13;101467.34;;;2.68;59.75
54588;BME280;40484;50.198;19.576;2023-03-04T01:54:17;101465.91;;;2.73;59.73
54588;BME280;40484;50.198;19.576;2023-03-04T01:59:45;101464.80;;;2.82;59.60
54588;BME280;40484;50.198;19.576;2023-03-04T02:04:46;101463.90;;;2.54;60.03
54588;BME280;40484;50.198;19.576;2023-03-04T02:09:48;101461.59;;;2.68;59.96
54588;BME280;40484;50.198;19.576;2023-03-04T02:14:50;101459.95;;;2.48;60.46
54588;BME280;40484;50.198;19.576;2023-03-04T02:25:10;101450.51;;;2.24;60.84
54588;BME280;40484;50.198;19.576;2023-03-04T02:30:10;101443.77;;;2.39;60.77
54588;BME280;40484;50.198;19.576;2023-03-04T02:35:17;101432.04;;;2.34;61.02
54588;BME280;40484;50.198;19.576;2023-03-04T02:40:27;101417.51;;;2.64;59.96
54588;BME280;40484;50.198;19.576;2023-03-04T02:50:37;101397.59;;;2.63;60.01
54588;BME280;40484;50.198;19.576;2023-03-04T02:55:38;101401.68;;;2.69;59.78
54588;BME280;40484;50.198;19.576;2023-03-04T03:00:39;101401.86;;;2.53;60.18
54588;BME280;40484;50.198;19.576;2023-03-04T03:05:41;101394.21;;;2.51;60.16
54588;BME280;40484;50.198;19.576;2023-03-04T03:10:43;101390.13;;;2.37;60.38
54588;BME280;40484;50.198;19.576;2023-03-04T03:16:12;101376.41;;;2.28;60.50
54588;BME280;40484;50.198;19.576;2023-03-04T03:21:13;101376.41;;;2.43;60.13
54588;BME280;40484;50.198;19.576;2023-03-04T03:26:15;101374.70;;;2.61;59.66
54588;BME280;40484;50.198;19.576;2023-03-04T03:31:17;101375.16;;;2.38;60.04
54588;BME280;40484;50.198;19.576;2023-03-04T03:36:20;101381.39;;;2.14;60.22
54588;BME280;40484;50.198;19.576;2023-03-04T03:41:21;101373.38;;;2.14;60.12
54588;BME280;40484;50.198;19.576;2023-03-04T03:46:23;101375.80;;;2.14;60.01
54588;BME280;40484;50.198;19.576;2023-03-04T03:51:24;101375.69;;;1.87;60.47
54588;BME280;40484;50.198;19.576;2023-03-04T03:56:26;101371.55;;;2.01;59.96
54588;BME280;40484;50.198;19.576;2023-03-04T04:01:27;101372.84;;;2.16;59.61
54588;BME280;40484;50.198;19.576;2023-03-04T04:06:29;101359.70;;;2.40;59.08
54588;BME280;40484;50.198;19.576;2023-03-04T04:11:31;101360.11;;;2.30;59.54
54588;BME280;40484;50.198;19.576;2023-03-04T04:16:32;101370.38;;;2.02;60.30
54588;BME280;40484;50.198;19.576;2023-03-04T04:21:34;101370.87;;;2.08;60.19
54588;BME280;40484;50.198;19.576;2023-03-04T04:26:35;101358.67;;;1.96;60.63
54588;BME280;40484;50.198;19.576;2023-03-04T04:31:37;101365.79;;;1.90;61.21
54588;BME280;40484;50.198;19.576;2023-03-04T04:36:38;101360.55;;;2.07;60.87
54588;BME280;40484;50.198;19.576;2023-03-04T04:41:41;101361.20;;;2.13;60.78
54588;BME280;40484;50.198;19.576;2023-03-04T04:46:43;101352.70;;;2.29;60.22
54588;BME280;40484;50.198;19.576;2023-03-04T04:51:45;101357.94;;;2.23;60.37
54588;BME280;40484;50.198;19.576;2023-03-04T04:56:46;101355.45;;;2.02;60.69
54588;BME280;40484;50.198;19.576;2023-03-04T05:01:48;101352.19;;;2.23;60.12
54588;BME280;40484;50.198;19.576;2023-03-04T05:07:14;101348.66;;;2.36;59.86
54588;BME280;40484;50.198;19.576;2023-03-04T05:12:15;101340.83;;;2.20;60.11
54588;BME280;40484;50.198;19.576;2023-03-04T05:17:17;101335.32;;;2.21;60.26
54588;BME280;40484;50.198;19.576;2023-03-04T05:22:18;101337.73;;;2.11;60.46
54588;BME280;40484;50.198;19.576;2023-03-04T05:27:20;101340.70;;;1.93;61.12
54588;BME280;40484;50.198;19.576;2023-03-04T05:32:21;101338.29;;;2.04;60.68
54588;BME280;40484;50.198;19.576;2023-03-04T05:37:23;101336.48;;;1.91;60.88
54588;BME280;40484;50.198;19.576;2023-03-04T05:42:25;101337.23;;;1.51;61.88
54588;BME280;40484;50.198;19.576;2023-03-04T05:47:26;101325.63;;;2.01;60.94
54588;BME280;40484;50.198;19.576;2023-03-04T05:52:28;101322.50;;;1.89;61.15
54588;BME280;40484;50.198;19.576;2023-03-04T05:57:29;101322.34;;;2.00;60.65
54588;BME280;40484;50.198;19.576;2023-03-04T06:02:31;101327.43;;;1.99;60.60
54588;BME280;40484;50.198;19.576;2023-03-04T06:07:32;101330.05;;;1.79;60.77
54588;BME280;40484;50.198;19.576;2023-03-04T06:12:34;101332.88;;;1.68;60.33
54588;BME280;40484;50.198;19.576;2023-03-04T06:17:36;101332.23;;;1.63;60.57
54588;BME280;40484;50.198;19.576;2023-03-04T06:22:38;101334.34;;;1.79;60.14
54588;BME280;40484;50.198;19.576;2023-03-04T06:27:40;101326.78;;;1.93;59.68
54588;BME280;40484;50.198;19.576;2023-03-04T06:32:42;101335.20;;;1.99;59.56
54588;BME280;40484;50.198;19.576;2023-03-04T06:37:44;101327.82;;;1.65;60.33
54588;BME280;40484;50.198;19.576;2023-03-04T06:42:46;101323.25;;;1.92;59.18
54588;BME280;40484;50.198;19.576;2023-03-04T06:47:47;101337.59;;;2.11;58.85
54588;BME280;40484;50.198;19.576;2023-03-04T06:52:49;101352.81;;;2.03;59.06
54588;BME280;40484;50.198;19.576;2023-03-04T06:58:16;101348.90;;;2.27;58.56
54588;BME280;40484;50.198;19.576;2023-03-04T07:03:17;101356.99;;;2.29;58.18
54588;BME280;40484;50.198;19.576;2023-03-04T07:08:19;101359.13;;;2.22;58.54
54588;BME280;40484;50.198;19.576;2023-03-04T07:13:20;101359.98;;;2.07;58.70
54588;BME280;40484;50.198;19.576;2023-03-04T07:18:22;101351.73;;;2.16;58.74
54588;BME280;40484;50.198;19.576;2023-03-04T07:23:23;101364.88;;;2.26;58.60
54588;BME280;40484;50.198;19.576;2023-03-04T07:28:25;101360.85;;;2.33;57.97
54588;BME280;40484;50.198;19.576;2023-03-04T07:33:27;101359.35;;;2.12;58.19
54588;BME280;40484;50.198;19.576;2023-03-04T07:38:28;101361.73;;;2.29;57.56
54588;BME280;40484;50.198;19.576;2023-03-04T07:43:30;101358.52;;;1.93;58.73
54588;BME280;40484;50.198;19.576;2023-03-04T07:48:31;101358.43;;;2.29;57.70
54588;BME280;40484;50.198;19.576;2023-03-04T07:53:34;101369.25;;;2.09;58.11
54588;BME280;40484;50.198;19.576;2023-03-04T07:58:36;101367.79;;;1.94;58.26
54588;BME280;40484;50.198;19.576;2023-03-04T08:03:37;101366.18;;;1.95;57.74
54588;BME280;40484;50.198;19.576;2023-03-04T08:08:39;101362.53;;;1.81;57.93
54588;BME280;40484;50.198;19.576;2023-03-04T08:13:41;101369.35;;;1.87;57.95
54588;BME280;40484;50.198;19.576;2023-03-04T08:18:44;101379.84;;;1.98;57.25
54588;BME280;40484;50.198;19.576;2023-03-04T08:23:47;101377.08;;;2.14;57.33
54588;BME280;40484;50.198;19.576;2023-03-04T08:28:50;101392.02;;;2.29;56.85
54588;BME280;40484;50.198;19.576;2023-03-04T08:33:51;101375.18;;;2.08;57.49
54588;BME280;40484;50.198;19.576;2023-03-04T08:38:53;101373.35;;;1.95;58.02
54588;BME280;40484;50.198;19.576;2023-03-04T08:44:19;101380.38;;;2.29;57.17
54588;BME280;40484;50.198;19.576;2023-03-04T08:49:20;101391.41;;;2.23;57.16
54588;BME280;40484;50.198;19.576;2023-03-04T08:54:22;101381.45;;;2.16;57.10
54588;BME280;40484;50.198;19.576;2023-03-04T08:59:24;101390.11;;;2.22;56.69
54588;BME280;40484;50.198;19.576;2023-03-04T09:04:25;101377.78;;;2.26;56.29
54588;BME280;40484;50.198;19.576;2023-03-04T09:09:27;101391.70;;;2.26;55.81
54588;BME280;40484;50.198;19.576;2023-03-04T09:14:28;101386.93;;;2.05;56.63
54588;BME280;40484;50.198;19.576;2023-03-04T09:19:30;101378.55;;;2.25;56.25
54588;BME280;40484;50.198;19.576;2023-03-04T09:24:32;101375.91;;;2.45;55.60
54588;BME280;40484;50.198;19.576;2023-03-04T09:29:33;101376.22;;;2.33;56.09
54588;BME280;40484;50.198;19.576;2023-03-04T09:34:35;101382.63;;;2.49;55.46
54588;BME280;40484;50.198;19.576;2023-03-04T09:39:36;101378.53;;;2.29;56.16
54588;BME280;40484;50.198;19.576;2023-03-04T09:44:40;101376.33;;;2.56;55.63
54588;BME280;40484;50.198;19.576;2023-03-04T09:49:47;101360.47;;;2.54;55.67
54588;BME280;40484;50.198;19.576;2023-03-04T09:55:00;101364.41;;;2.45;55.87
54588;BME280;40484;50.198;19.576;2023-03-04T10:00:20;101360.32;;;2.71;55.48
54588;BME280;40484;50.198;19.576;2023-03-04T10:10:53;101374.38;;;2.69;55.90
54588;BME280;40484;50.198;19.576;2023-03-04T10:15:56;101356.02;;;2.61;56.20
54588;BME280;40484;50.198;19.576;2023-03-04T10:21:01;101363.36;;;2.85;55.94
54588;BME280;40484;50.198;19.576;2023-03-04T10:26:09;101358.76;;;2.57;56.75
54588;BME280;40484;50.198;19.576;2023-03-04T10:31:30;101348.64;;;2.76;56.44
54588;BME280;40484;50.198;19.576;2023-03-04T10:41:33;101339.41;;;2.41;57.47
54588;BME280;40484;50.198;19.576;2023-03-04T10:46:42;101333.21;;;2.71;56.90
54588;BME280;40484;50.198;19.576;2023-03-04T10:51:49;101328.95;;;2.93;56.81
54588;BME280;40484;50.198;19.576;2023-03-04T10:57:19;101322.23;;;2.89;56.88
54588;BME280;40484;50.198;19.576;2023-03-04T11:02:44;101315.47;;;3.06;56.82
54588;BME280;40484;50.198;19.576;2023-03-04T11:07:54;101316.54;;;2.91;57.18
54588;BME280;40484;50.198;19.576;2023-03-04T11:13:21;101312.18;;;2.89;57.59
54588;BME280;40484;50.198;19.576;2023-03-04T11:28:44;101297.91;;;3.03;57.63
54588;BME280;40484;50.198;19.576;2023-03-04T11:33:52;101295.06;;;2.93;57.92
54588;BME280;40484;50.198;19.576;2023-03-04T11:38:53;101292.67;;;2.68;58.70
54588;BME280;40484;50.198;19.576;2023-03-04T11:43:55;101287.66;;;2.87;58.65
54588;BME280;40484;50.198;19.576;2023-03-04T12:00:38;101287.04;;;2.76;59.24
54588;BME280;40484;50.198;19.576;2023-03-04T12:11:05;101275.91;;;2.80;59.55
54588;BME280;40484;50.198;19.576;2023-03-04T12:21:59;101262.27;;;2.83;59.90
54588;BME280;40484;50.198;19.576;2023-03-04T12:37:36;101257.80;;;2.90;60.12
54588;BME280;40484;50.198;19.576;2023-03-04T12:48:23;101255.01;;;2.92;60.06
54588;BME280;40484;50.198;19.576;2023-03-04T12:59:01;101247.87;;;3.04;60.18
54588;BME280;40484;50.198;19.576;2023-03-04T13:20:24;101223.37;;;3.25;59.69
54588;BME280;40484;50.198;19.576;2023-03-04T13:31:16;101227.89;;;3.20;59.58
54588;BME280;40484;50.198;19.576;2023-03-04T13:36:50;101216.14;;;3.13;59.29
54588;BME280;40484;50.198;19.576;2023-03-04T13:41:49;101213.72;;;3.32;58.91
54588;BME280;40484;50.198;19.576;2023-03-04T13:46:51;101215.64;;;3.40;58.82
54588;BME280;40484;50.198;19.576;2023-03-04T13:51:53;101230.67;;;3.12;59.23
54588;BME280;40484;50.198;19.576;2023-03-04T13:57:18;101217.75;;;3.41;58.79
54588;BME280;40484;50.198;19.576;2023-03-04T14:02:24;101215.34;;;3.08;60.01
54588;BME280;40484;50.198;19.576;2023-03-04T14:07:33;101212.72;;;3.44;59.10
54588;BME280;40484;50.198;19.576;2023-03-04T14:12:48;101217.90;;;3.69;58.68
54588;BME280;40484;50.198;19.576;2023-03-04T14:18:14;101192.21;;;3.76;58.55
54588;BME280;40484;50.198;19.576;2023-03-04T14:28:28;101208.22;;;3.88;58.39
54588;BME280;40484;50.198;19.576;2023-03-04T14:33:30;101206.36;;;3.94;58.33
54588;BME280;40484;50.198;19.576;2023-03-04T14:40:44;101202.21;;;3.81;58.75
54588;BME280;40484;50.198;19.576;2023-03-04T14:45:48;101201.08;;;3.71;59.22
54588;BME280;40484;50.198;19.576;2023-03-04T14:50:50;101192.92;;;3.86;58.34
54588;BME280;40484;50.198;19.576;2023-03-04T14:56:00;101190.52;;;4.00;57.72
54588;BME280;40484;50.198;19.576;2023-03-04T15:01:21;101194.90;;;3.89;57.54
54588;BME280;40484;50.198;19.576;2023-03-04T15:06:24;101186.27;;;3.59;57.74
54588;BME280;40484;50.198;19.576;2023-03-04T15:11:28;101189.03;;;3.74;57.00
54588;BME280;40484;50.198;19.576;2023-03-04T15:16:51;101192.28;;;3.72;56.94
54588;BME280;40484;50.198;19.576;2023-03-04T15:21:38;101188.20;;;3.67;56.74
54588;BME280;40484;50.198;19.576;2023-03-04T15:26:42;101189.02;;;3.92;55.86
54588;BME280;40484;50.198;19.576;2023-03-04T15:31:45;101188.58;;;3.59;56.24
54588;BME280;40484;50.198;19.576;2023-03-04T15:36:50;101183.65;;;4.11;55.02
54588;BME280;40484;50.198;19.576;2023-03-04T15:42:18;101180.66;;;4.21;54.47
54588;BME280;40484;50.198;19.576;2023-03-04T15:47:19;101167.11;;;3.69;55.30
54588;BME280;40484;50.198;19.576;2023-03-04T15:52:21;101171.49;;;4.23;54.04
54588;BME280;40484;50.198;19.576;2023-03-04T15:57:25;101168.33;;;4.14;53.71
54588;BME280;40484;50.198;19.576;2023-03-04T16:02:26;101176.91;;;3.86;54.21
54588;BME280;40484;50.198;19.576;2023-03-04T16:07:29;101173.79;;;3.91;53.98
54588;BME280;40484;50.198;19.576;2023-03-04T16:12:31;101160.39;;;4.03;53.73
54588;BME280;40484;50.198;19.576;2023-03-04T16:17:33;101173.28;;;4.28;53.24
54588;BME280;40484;50.198;19.576;2023-03-04T16:22:35;101179.09;;;4.16;53.30
54588;BME280;40484;50.198;19.576;2023-03-04T16:27:36;101181.19;;;4.05;53.43
54588;BME280;40484;50.198;19.576;2023-03-04T16:32:38;101182.72;;;4.14;53.19
54588;BME280;40484;50.198;19.576;2023-03-04T16:37:40;101178.77;;;4.19;53.00
54588;BME280;40484;50.198;19.576;2023-03-04T16:42:42;101183.96;;;4.07;53.09
54588;BME280;40484;50.198;19.576;2023-03-04T16:47:44;101188.46;;;4.13;52.81
54588;BME280;40484;50.198;19.576;2023-03-04T16:52:47;101185.82;;;4.34;52.43
54588;BME280;40484;50.198;19.576;2023-03-04T16:57:49;101189.71;;;4.07;52.78
54588;BME280;40484;50.198;19.576;2023-03-04T17:02:57;101194.11;;;4.03;53.23
54588;BME280;40484;50.198;19.576;2023-03-04T17:07:58;101184.11;;;4.25;52.54
54588;BME280;40484;50.198;19.576;2023-03-04T17:13:00;101179.13;;;4.11;52.73
54588;BME280;40484;50.198;19.576;2023-03-04T17:18:01;101169.66;;;3.91;53.17
54588;BME280;40484;50.198;19.576;2023-03-04T17:23:27;101173.24;;;4.00;53.18
54588;BME280;40484;50.198;19.576;2023-03-04T17:28:30;101176.88;;;3.99;52.87
54588;BME280;40484;50.198;19.576;2023-03-04T17:33:31;101165.60;;;4.12;52.70
54588;BME280;40484;50.198;19.576;2023-03-04T17:38:33;101166.51;;;3.96;53.02
54588;BME280;40484;50.198;19.576;2023-03-04T17:43:34;101179.06;;;3.89;53.37
54588;BME280;40484;50.198;19.576;2023-03-04T17:48:36;101185.84;;;3.89;53.41
54588;BME280;40484;50.198;19.576;2023-03-04T17:53:38;101195.08;;;3.89;53.29
54588;BME280;40484;50.198;19.576;2023-03-04T17:58:39;101198.70;;;4.18;52.86
54588;BME280;40484;50.198;19.576;2023-03-04T18:03:41;101203.89;;;4.06;53.35
54588;BME280;40484;50.198;19.576;2023-03-04T18:08:43;101208.93;;;4.03;53.72
54588;BME280;40484;50.198;19.576;2023-03-04T18:13:44;101195.74;;;4.22;53.30
54588;BME280;40484;50.198;19.576;2023-03-04T18:18:46;101202.04;;;4.00;53.92
54588;BME280;40484;50.198;19.576;2023-03-04T18:23:48;101202.66;;;4.13;53.67
54588;BME280;40484;50.198;19.576;2023-03-04T18:28:50;101208.08;;;4.15;53.57
54588;BME280;40484;50.198;19.576;2023-03-04T18:33:52;101189.83;;;4.11;53.83
54588;BME280;40484;50.198;19.576;2023-03-04T18:38:54;101177.08;;;3.92;54.61
54588;BME280;40484;50.198;19.576;2023-03-04T18:43:58;101175.59;;;3.78;55.07
54588;BME280;40484;50.198;19.576;2023-03-04T18:49:01;101189.76;;;3.64;55.67
54588;BME280;40484;50.198;19.576;2023-03-04T18:54:03;101186.74;;;3.91;55.23
54588;BME280;40484;50.198;19.576;2023-03-04T18:59:16;101194.52;;;4.15;54.64
54588;BME280;40484;50.198;19.576;2023-03-04T19:04:41;101195.75;;;4.36;54.34
54588;BME280;40484;50.198;19.576;2023-03-04T19:09:43;101188.91;;;4.49;54.10
54588;BME280;40484;50.198;19.576;2023-03-04T19:14:44;101188.84;;;4.59;54.05
54588;BME280;40484;50.198;19.576;2023-03-04T19:19:46;101194.79;;;4.24;54.92
54588;BME280;40484;50.198;19.576;2023-03-04T19:24:47;101195.06;;;4.27;54.99
54588;BME280;40484;50.198;19.576;2023-03-04T19:29:49;101192.41;;;4.48;54.76
54588;BME280;40484;50.198;19.576;2023-03-04T19:34:51;101195.90;;;4.68;54.40
54588;BME280;40484;50.198;19.576;2023-03-04T19:39:52;101195.22;;;4.59;54.83
54588;BME280;40484;50.198;19.576;2023-03-04T19:44:55;101199.20;;;4.68;54.68
54588;BME280;40484;50.198;19.576;2023-03-04T19:49:57;101194.75;;;4.51;55.31
54588;BME280;40484;50.198;19.576;2023-03-04T19:54:58;101197.04;;;4.93;54.33
54588;BME280;40484;50.198;19.576;2023-03-04T20:00:00;101200.52;;;4.79;54.96
54588;BME280;40484;50.198;19.576;2023-03-04T20:05:02;101194.06;;;4.98;54.54
54588;BME280;40484;50.198;19.576;2023-03-04T20:10:04;101195.82;;;5.08;54.55
54588;BME280;40484;50.198;19.576;2023-03-04T20:15:06;101198.01;;;5.21;54.38
54588;BME280;40484;50.198;19.576;2023-03-04T20:20:09;101199.95;;;4.87;55.18
54588;BME280;40484;50.198;19.576;2023-03-04T20:25:12;101199.05;;;4.99;55.00
54588;BME280;40484;50.198;19.576;2023-03-04T20:30:14;101209.25;;;4.89;55.37
54588;BME280;40484;50.198;19.576;2023-03-04T20:35:15;101200.69;;;4.92;55.32
54588;BME280;40484;50.198;19.576;2023-03-04T20:40:17;101198.45;;;5.00;55.21
54588;BME280;40484;50.198;19.576;2023-03-04T20:45:19;101193.45;;;4.98;55.47
54588;BME280;40484;50.198;19.576;2023-03-04T20:50:46;101192.61;;;5.12;55.36
54588;BME280;40484;50.198;19.576;2023-03-04T20:55:47;101186.37;;;5.10;55.59
54588;BME280;40484;50.198;19.576;2023-03-04T21:00:50;101217.55;;;5.20;55.54
54588;BME280;40484;50.198;19.576;2023-03-04T21:05:51;101224.52;;;5.33;53.74
54588;BME280;40484;50.198;19.576;2023-03-04T21:10:53;101223.17;;;4.79;53.59
54588;BME280;40484;50.198;19.576;2023-03-04T21:15:56;101218.66;;;5.01;53.24
54588;BME280;40484;50.198;19.576;2023-03-04T21:20:57;101230.05;;;4.74;53.60
54588;BME280;40484;50.198;19.576;2023-03-04T21:25:59;101232.58;;;4.55;54.33
54588;BME280;40484;50.198;19.576;2023-03-04T21:31:00;101225.52;;;4.47;54.45
54588;BME280;40484;50.198;19.576;2023-03-04T21:36:02;101227.28;;;4.37;54.78
54588;BME280;40484;50.198;19.576;2023-03-04T21:41:04;101208.47;;;4.27;54.90
54588;BME280;40484;50.198;19.576;2023-03-04T21:46:06;101205.91;;;4.18;54.84
54588;BME280;40484;50.198;19.576;2023-03-04T21:51:15;101210.25;;;4.26;54.52
54588;BME280;40484;50.198;19.576;2023-03-04T21:56:17;101209.74;;;4.36;54.37
54588;BME280;40484;50.198;19.576;2023-03-04T22:01:19;101208.66;;;4.14;54.58
54588;BME280;40484;50.198;19.576;2023-03-04T22:06:21;101213.04;;;4.36;54.08
54588;BME280;40484;50.198;19.576;2023-03-04T22:11:24;101207.75;;;4.24;54.12
54588;BME280;40484;50.198;19.576;2023-03-04T22:16:26;101199.91;;;4.37;53.71
54588;BME280;40484;50.198;19.576;2023-03-04T22:21:28;101201.34;;;4.43;53.57
54588;BME280;40484;50.198;19.576;2023-03-04T22:26:29;101194.16;;;4.37;53.54
54588;BME280;40484;50.198;19.576;2023-03-04T22:31:57;101199.69;;;4.50;53.30
54588;BME280;40484;50.198;19.576;2023-03-04T22:36:59;101202.33;;;4.55;53.15
54588;BME280;40484;50.198;19.576;2023-03-04T22:42:00;101201.30;;;4.63;53.00
54588;BME280;40484;50.198;19.576;2023-03-04T22:47:02;101197.52;;;4.81;52.80
54588;BME280;40484;50.198;19.576;2023-03-04T22:52:03;101196.22;;;4.65;52.82
54588;BME280;40484;50.198;19.576;2023-03-04T22:57:05;101200.93;;;4.71;52.75
54588;BME280;40484;50.198;19.576;2023-03-04T23:02:06;101189.38;;;4.57;53.14
54588;BME280;40484;50.198;19.576;2023-03-04T23:07:08;101206.33;;;4.59;53.33
54588;BME280;40484;50.198;19.576;2023-03-04T23:12:09;101220.40;;;4.48;53.74
54588;BME280;40484;50.198;19.576;2023-03-04T23:17:11;101217.95;;;4.68;53.43
54588;BME280;40484;50.198;19.576;2023-03-04T23:22:12;101219.44;;;4.64;53.71
54588;BME280;40484;50.198;19.576;2023-03-04T23:27:14;101226.08;;;4.72;53.64
54588;BME280;40484;50.198;19.576;2023-03-04T23:32:16;101228.69;;;4.63;53.79
54588;BME280;40484;50.198;19.576;2023-03-04T23:37:19;101226.90;;;4.65;53.72
54588;BME280;40484;50.198;19.576;2023-03-04T23:42:21;101231.37;;;4.70;53.65
54588;BME280;40484;50.198;19.576;2023-03-04T23:47:22;101231.85;;;4.58;53.83
54588;BME280;40484;50.198;19.576;2023-03-04T23:52:24;101233.19;;;4.77;53.61
54588;BME280;40484;50.198;19.576;2023-03-04T23:57:25;101232.51;;;4.88;53.34
